Time;durP1;ratioP1;P1;durP2;ratioP2;P2;SDS_P1;SDS_P2;PMS_P1;PMS_P2;Temp;Humidity;BMP_temperature;BMP_pressure;BME280_temperature;BME280_humidity;BME280_pressure;Samples;Min_cycle;Max_cycle;Signal;HPM_P1;HPM_P2
2022/04/06 00:02:22;;;;;;;28.10;16.73;;;9.10;99.90;;;;;;12455669;28;20421;-39
2022/04/06 00:08:30;;;;;;;23.70;16.38;;;9.00;99.90;;;;;;12458907;28;20053;-40
2022/04/06 00:14:41;;;;;;;29.95;16.42;;;9.00;99.90;;;;;;12452479;28;20054;-40
2022/04/06 00:20:57;;;;;;;31.20;17.00;;;9.00;99.90;;;;;;12440182;28;20053;-40
2022/04/06 00:27:10;;;;;;;28.33;17.65;;;9.10;99.90;;;;;;12452209;28;20058;-36
2022/04/06 00:33:27;;;;;;;27.83;17.98;;;9.10;99.90;;;;;;12453309;28;20076;-40
2022/04/06 00:39:35;;;;;;;30.25;18.15;;;9.00;99.90;;;;;;12461737;28;20545;-40
2022/04/06 00:45:53;;;;;;;33.83;20.17;;;9.00;99.90;;;;;;12425174;28;20041;-41
2022/04/06 00:52:14;;;;;;;35.45;19.63;;;9.00;99.90;;;;;;12447404;28;20058;-36
2022/04/06 00:58:36;;;;;;;34.47;20.42;;;9.10;99.90;;;;;;12454855;28;20084;-37
2022/04/06 01:04:55;;;;;;;36.97;20.52;;;9.10;99.90;;;;;;12450266;28;20053;-40
2022/04/06 01:11:12;;;;;;;32.45;20.17;;;9.10;99.90;;;;;;12454740;28;20054;-40
2022/04/06 01:17:38;;;;;;;33.08;20.40;;;9.10;99.90;;;;;;12450121;28;20068;-37
2022/04/06 01:23:55;;;;;;;31.52;18.67;;;9.10;99.90;;;;;;12453864;28;20506;-41
2022/04/06 01:30:17;;;;;;;36.60;19.67;;;9.10;99.90;;;;;;12469082;28;20046;-40
2022/04/06 01:36:32;;;;;;;28.10;17.40;;;9.10;99.90;;;;;;12425636;28;20524;-36
2022/04/06 01:42:48;;;;;;;33.25;18.65;;;9.10;99.90;;;;;;12464297;28;20049;-41
2022/04/06 01:55:34;;;;;;;28.67;16.77;;;9.10;99.90;;;;;;12461650;28;20054;-37
2022/04/06 02:01:55;;;;;;;34.00;18.23;;;9.10;99.90;;;;;;12440336;28;20088;-40
2022/04/06 02:08:09;;;;;;;31.13;17.38;;;9.10;99.90;;;;;;12467458;28;20046;-40
2022/04/06 02:14:21;;;;;;;34.15;18.80;;;9.10;99.90;;;;;;12437411;28;20071;-36
2022/04/06 02:20:43;;;;;;;30.38;17.60;;;9.10;99.90;;;;;;12463718;28;20049;-36
2022/04/06 02:26:54;;;;;;;29.45;18.05;;;9.10;99.90;;;;;;12459539;28;20418;-36
2022/04/06 02:33:01;;;;;;;38.53;19.27;;;9.00;99.90;;;;;;12461109;28;20065;-36
2022/04/06 02:39:13;;;;;;;35.33;19.48;;;9.00;99.90;;;;;;12455668;28;20164;-36
2022/04/06 02:45:22;;;;;;;35.53;21.30;;;9.00;99.90;;;;;;12449082;28;20049;-36
2022/04/06 02:51:37;;;;;;;41.25;23.05;;;9.00;99.90;;;;;;12462721;28;20496;-36
2022/04/06 02:57:49;;;;;;;42.08;24.25;;;9.00;99.90;;;;;;12452871;28;20136;-36
2022/04/06 03:04:05;;;;;;;35.38;22.80;;;9.00;99.90;;;;;;12463376;28;20084;-36
2022/04/06 03:10:30;;;;;;;42.40;23.63;;;9.00;99.90;;;;;;12457272;28;20064;-40
2022/04/06 03:16:45;;;;;;;43.08;24.92;;;9.00;99.90;;;;;;12454452;28;20046;-36
2022/04/06 03:23:08;;;;;;;40.92;23.10;;;8.90;99.90;;;;;;12449067;28;20046;-36
2022/04/06 03:29:22;;;;;;;43.55;23.33;;;8.90;99.90;;;;;;12458785;28;20053;-36
2022/04/06 03:35:46;;;;;;;36.92;22.65;;;8.80;99.90;;;;;;12459135;28;20111;-40
2022/04/06 03:42:03;;;;;;;35.47;22.73;;;8.80;99.90;;;;;;12459145;28;20088;-41
2022/04/06 03:48:22;;;;;;;35.38;23.45;;;8.80;99.90;;;;;;12463095;28;20038;-41
2022/04/06 03:54:46;;;;;;;33.72;23.05;;;8.80;99.90;;;;;;12434177;28;20527;-36
2022/04/06 04:01:07;;;;;;;40.17;22.02;;;8.70;99.90;;;;;;12465602;28;20128;-39
2022/04/06 04:07:25;;;;;;;33.65;23.10;;;8.70;99.90;;;;;;12439439;28;20100;-36
2022/04/06 04:13:34;;;;;;;40.03;23.50;;;8.70;99.90;;;;;;12453381;28;20060;-40
2022/04/06 04:19:42;;;;;;;42.63;23.88;;;8.70;99.90;;;;;;12459588;28;20667;-40
2022/04/06 04:25:56;;;;;;;40.60;25.08;;;8.70;99.90;;;;;;12428656;28;20046;-36
2022/04/06 04:32:11;;;;;;;41.80;25.98;;;8.70;99.90;;;;;;12447809;28;20464;-40
2022/04/06 04:38:29;;;;;;;44.35;26.48;;;8.70;99.90;;;;;;12462220;28;20057;-38
2022/04/06 04:44:45;;;;;;;45.55;26.30;;;8.60;99.90;;;;;;12424448;28;20081;-40
2022/04/06 04:51:06;;;;;;;42.05;24.67;;;8.60;99.90;;;;;;12463214;28;20516;-36
2022/04/06 04:57:23;;;;;;;46.15;25.85;;;8.50;99.90;;;;;;12467843;28;20504;-36
2022/04/06 05:03:34;;;;;;;44.27;26.93;;;8.50;99.90;;;;;;12470315;28;20705;-36
2022/04/06 05:09:46;;;;;;;47.08;27.27;;;8.40;99.90;;;;;;12456431;28;20041;-40
2022/04/06 05:16:01;;;;;;;43.90;25.15;;;8.40;99.90;;;;;;12463211;28;20120;-36
2022/04/06 05:22:11;;;;;;;39.17;22.73;;;8.50;99.90;;;;;;12458236;28;20077;-40
2022/04/06 05:28:18;;;;;;;42.78;24.05;;;8.60;99.90;;;;;;12470287;28;20497;-41
2022/04/06 05:34:34;;;;;;;34.75;22.17;;;8.60;99.90;;;;;;12456676;28;20144;-36
2022/04/06 05:40:44;;;;;;;39.42;21.88;;;8.60;99.90;;;;;;12469260;28;20054;-36
2022/04/06 05:46:51;;;;;;;30.70;20.17;;;8.60;99.90;;;;;;12461775;28;20038;-40
2022/04/06 05:53:01;;;;;;;29.20;18.77;;;8.70;99.90;;;;;;12452576;28;20971;-40
2022/04/06 05:59:16;;;;;;;29.52;18.45;;;8.70;99.90;;;;;;12450493;28;20081;-37
2022/04/06 06:05:25;;;;;;;36.42;18.17;;;8.60;99.90;;;;;;12434004;28;20204;-41
2022/04/06 06:11:36;;;;;;;28.52;17.60;;;8.60;99.90;;;;;;12467826;28;20049;-36
2022/04/06 06:17:47;;;;;;;27.20;16.08;;;8.60;99.90;;;;;;12461814;28;20549;-37
2022/04/06 06:24:05;;;;;;;24.48;15.70;;;8.60;99.90;;;;;;12458225;28;20567;-37
2022/04/06 06:30:17;;;;;;;27.25;13.57;;;8.60;99.90;;;;;;12450549;28;20057;-40
2022/04/06 06:36:28;;;;;;;21.67;11.07;;;8.60;99.90;;;;;;12428063;28;20061;-36
2022/04/06 06:42:38;;;;;;;19.38;11.77;;;8.60;99.90;;;;;;12454430;28;20058;-39
2022/04/06 06:48:51;;;;;;;18.67;9.77;;;8.60;99.90;;;;;;12448823;28;20053;-36
2022/04/06 06:55:03;;;;;;;17.67;9.18;;;8.70;99.90;;;;;;12424467;28;20057;-37
2022/04/06 07:01:15;;;;;;;17.48;9.00;;;8.80;99.90;;;;;;12434818;28;20126;-40
2022/04/06 07:07:25;;;;;;;16.38;8.27;;;8.80;99.90;;;;;;12449419;28;20061;-40
2022/04/06 07:13:38;;;;;;;15.65;8.25;;;8.80;99.90;;;;;;12445063;28;20054;-37
2022/04/06 07:19:49;;;;;;;15.05;8.63;;;9.00;99.90;;;;;;12461816;28;20062;-41
2022/04/06 07:26:02;;;;;;;15.85;7.82;;;9.00;99.90;;;;;;12453661;28;20486;-37
2022/04/06 07:32:22;;;;;;;14.30;7.10;;;9.00;99.90;;;;;;12461194;28;20046;-36
2022/04/06 07:38:38;;;;;;;13.88;6.90;;;9.00;99.90;;;;;;12461007;28;20077;-41
2022/04/06 07:44:47;;;;;;;12.93;6.45;;;9.00;99.90;;;;;;12428735;28;20049;-36
2022/04/06 07:50:55;;;;;;;12.48;6.32;;;8.90;99.90;;;;;;12455448;28;20050;-36
2022/04/06 07:57:09;;;;;;;12.13;5.55;;;8.80;99.90;;;;;;12428445;28;20068;-40
2022/04/06 08:03:18;;;;;;;12.63;5.93;;;8.80;99.90;;;;;;12451188;28;20053;-40
2022/04/06 08:09:28;;;;;;;8.88;4.82;;;8.80;99.90;;;;;;12462870;28;20905;-36
2022/04/06 08:15:39;;;;;;;9.73;4.60;;;8.80;99.90;;;;;;12460471;28;20089;-37
2022/04/06 08:21:48;;;;;;;12.85;4.90;;;8.90;99.90;;;;;;12460636;28;20092;-40
2022/04/06 08:28:01;;;;;;;11.38;5.25;;;8.70;99.90;;;;;;12470186;28;20058;-37
2022/04/06 08:34:15;;;;;;;12.02;5.38;;;8.80;99.90;;;;;;12467147;28;20049;-40
2022/04/06 08:40:27;;;;;;;12.15;5.45;;;8.80;99.90;;;;;;12469602;28;20057;-36
2022/04/06 08:46:38;;;;;;;14.18;5.72;;;8.70;99.90;;;;;;12470547;28;20077;-41
2022/04/06 08:53:04;;;;;;;11.60;5.40;;;8.70;99.90;;;;;;12446016;28;20153;-37
2022/04/06 08:59:15;;;;;;;12.07;6.35;;;8.70;99.90;;;;;;12467158;28;20827;-36
2022/04/06 09:05:22;;;;;;;14.35;6.30;;;8.70;99.90;;;;;;12434032;28;20417;-40
2022/04/06 09:11:29;;;;;;;13.13;5.67;;;8.70;99.90;;;;;;12459996;28;20517;-36
2022/04/06 09:17:48;;;;;;;11.07;5.15;;;8.90;99.90;;;;;;12464743;28;20053;-39
2022/04/06 09:23:59;;;;;;;9.25;4.03;;;8.90;99.90;;;;;;12463046;28;20072;-36
2022/04/06 09:30:12;;;;;;;8.63;2.88;;;9.20;99.90;;;;;;12466726;28;20630;-39
2022/04/06 09:36:23;;;;;;;7.38;2.40;;;9.30;99.90;;;;;;12420671;28;20798;-40
2022/04/06 09:42:28;;;;;;;8.82;2.88;;;9.40;99.90;;;;;;12459490;28;20139;-40
2022/04/06 09:49:01;;;;;;;10.57;3.67;;;9.40;99.90;;;;;;12467390;28;20064;-41
2022/04/06 09:55:11;;;;;;;12.20;4.38;;;9.20;99.90;;;;;;12460234;28;20144;-40
2022/04/06 10:01:21;;;;;;;11.80;5.30;;;9.20;99.90;;;;;;12466861;28;20642;-42
2022/04/06 10:07:39;;;;;;;11.45;6.05;;;9.00;99.90;;;;;;12452267;28;20050;-36
2022/04/06 10:13:51;;;;;;;9.77;5.20;;;8.90;99.90;;;;;;12453511;28;20057;-36
2022/04/06 10:20:35;;;;;;;7.90;4.93;;;9.10;99.90;;;;;;12461324;28;20445;-39
2022/04/06 10:26:56;;;;;;;11.80;5.50;;;9.20;99.90;;;;;;12459066;28;20080;-40
2022/04/06 10:33:21;;;;;;;15.48;6.28;;;9.20;99.90;;;;;;12449752;28;20417;-36
2022/04/06 10:40:00;;;;;;;11.80;6.35;;;9.20;99.90;;;;;;12462621;28;20057;-36
2022/04/06 10:46:16;;;;;;;15.13;6.63;;;9.30;99.90;;;;;;12459904;28;20049;-39
2022/04/06 10:52:39;;;;;;;10.43;5.95;;;9.30;99.90;;;;;;12446582;28;20057;-36
2022/04/06 10:59:00;;;;;;;9.93;5.60;;;9.20;99.90;;;;;;12446861;28;20088;-40
2022/04/06 11:05:50;;;;;;;9.43;5.93;;;9.20;99.90;;;;;;12435161;28;20049;-37
2022/04/06 11:12:21;;;;;;;10.15;5.05;;;9.30;99.90;;;;;;12456609;28;20096;-36
2022/04/06 11:18:49;;;;;;;6.90;3.85;;;9.40;99.90;;;;;;12466659;28;20049;-41
2022/04/06 11:25:12;;;;;;;6.90;3.90;;;9.40;99.90;;;;;;12431357;28;20058;-39
2022/04/06 11:31:53;;;;;;;8.18;4.30;;;9.30;99.90;;;;;;12424391;28;20042;-37
2022/04/06 11:38:09;;;;;;;7.32;4.13;;;9.30;99.90;;;;;;12463958;28;20497;-42
2022/04/06 11:44:26;;;;;;;6.55;3.80;;;9.40;99.90;;;;;;12447543;28;20424;-37
2022/04/06 11:50:41;;;;;;;5.18;3.58;;;9.50;99.90;;;;;;12458573;28;20469;-40
2022/04/06 11:57:00;;;;;;;8.48;3.78;;;9.40;99.90;;;;;;12451999;28;20053;-37
2022/04/06 12:03:17;;;;;;;7.03;3.22;;;9.60;99.90;;;;;;12449092;28;20405;-39
2022/04/06 12:09:39;;;;;;;7.93;3.13;;;9.50;99.90;;;;;;12454012;28;20092;-39
2022/04/06 12:15:55;;;;;;;6.22;2.72;;;9.50;99.90;;;;;;12437660;28;20421;-41
2022/04/06 12:22:10;;;;;;;8.82;3.55;;;9.60;99.90;;;;;;12410895;28;20061;-41
2022/04/06 12:28:31;;;;;;;9.27;3.03;;;9.50;99.90;;;;;;12400303;28;20081;-36
2022/04/06 12:34:57;;;;;;;10.13;2.67;;;9.50;99.90;;;;;;12392843;28;20050;-36
2022/04/06 12:41:16;;;;;;;4.20;1.90;;;9.50;99.90;;;;;;12412651;28;20050;-40
2022/04/06 12:47:26;;;;;;;5.07;2.05;;;9.40;99.90;;;;;;12413632;28;20108;-40
2022/04/06 12:53:34;;;;;;;5.13;2.38;;;9.40;99.90;;;;;;12396698;28;20525;-36
2022/04/06 12:59:59;;;;;;;2.58;1.92;;;9.30;99.90;;;;;;12401437;28;20399;-41
2022/04/06 13:06:04;;;;;;;9.93;2.55;;;9.20;99.90;;;;;;12390605;28;21017;-39
2022/04/06 13:12:10;;;;;;;5.85;3.15;;;9.20;99.90;;;;;;12402266;28;20050;-36
2022/04/06 13:18:15;;;;;;;4.03;2.65;;;9.00;99.90;;;;;;12411559;28;20066;-35
2022/04/06 13:24:22;;;;;;;6.50;3.70;;;9.00;99.90;;;;;;12453452;28;20049;-36
2022/04/06 13:30:42;;;;;;;8.55;4.15;;;9.30;99.90;;;;;;12465233;28;20094;-36
2022/04/06 13:36:50;;;;;;;6.45;3.88;;;9.30;99.90;;;;;;12457657;28;20049;-40
2022/04/06 13:42:53;;;;;;;6.30;3.13;;;9.20;99.90;;;;;;12443990;28;20060;-36
2022/04/06 13:48:57;;;;;;;9.70;5.13;;;9.10;99.90;;;;;;12449637;28;20079;-40
2022/04/06 13:55:04;;;;;;;8.43;6.28;;;9.00;99.90;;;;;;12436175;28;20049;-40
2022/04/06 14:01:11;;;;;;;10.00;7.13;;;8.90;99.90;;;;;;12454339;28;20049;-39
2022/04/06 14:07:17;;;;;;;10.27;7.70;;;8.70;99.90;;;;;;12454976;28;20061;-40
2022/04/06 14:13:21;;;;;;;9.88;7.40;;;8.60;99.90;;;;;;12450003;28;20494;-40
2022/04/06 14:19:24;;;;;;;11.13;8.27;;;8.50;99.90;;;;;;12453969;28;20501;-36
2022/04/06 14:25:26;;;;;;;12.57;8.38;;;8.50;99.90;;;;;;12446934;28;20049;-40
2022/04/06 14:31:28;;;;;;;10.35;7.55;;;8.50;99.90;;;;;;12449977;28;20090;-42
2022/04/06 14:37:30;;;;;;;10.00;7.32;;;8.40;99.90;;;;;;12455106;28;20049;-36
2022/04/06 14:43:33;;;;;;;9.80;7.90;;;8.50;99.90;;;;;;12449400;28;20053;-40
2022/04/06 14:49:35;;;;;;;10.07;7.75;;;8.60;99.90;;;;;;12449244;28;20054;-41
2022/04/06 14:55:38;;;;;;;10.73;7.68;;;8.60;99.90;;;;;;12452276;28;20414;-40
2022/04/06 15:01:41;;;;;;;12.02;7.55;;;8.50;99.90;;;;;;12445395;28;20045;-39
2022/04/06 15:07:44;;;;;;;8.18;6.53;;;8.50;99.90;;;;;;12451041;28;20153;-36
2022/04/06 15:13:47;;;;;;;12.18;6.50;;;8.60;99.90;;;;;;12453961;28;20060;-41
2022/04/06 15:19:55;;;;;;;7.57;5.30;;;8.60;99.90;;;;;;12444526;28;20104;-39
2022/04/06 15:25:57;;;;;;;6.45;4.25;;;8.80;99.90;;;;;;12450973;28;20042;-36
2022/04/06 15:32:00;;;;;;;7.03;4.10;;;8.90;99.90;;;;;;12421094;28;20080;-41
2022/04/06 15:38:02;;;;;;;6.70;3.60;;;9.00;99.90;;;;;;12444512;28;20522;-35
2022/04/06 15:44:04;;;;;;;7.35;3.03;;;9.00;99.90;;;;;;12444493;28;20045;-36
2022/04/06 15:50:09;;;;;;;6.32;2.88;;;9.00;99.90;;;;;;12447657;28;20106;-40
2022/04/06 15:56:15;;;;;;;5.85;2.78;;;9.10;99.90;;;;;;12447684;28;20056;-40
2022/04/06 16:02:19;;;;;;;5.30;2.70;;;9.20;99.90;;;;;;12445863;28;20088;-36
2022/04/06 16:08:24;;;;;;;4.45;2.25;;;9.20;99.90;;;;;;12437836;28;20093;-37
2022/04/06 16:14:35;;;;;;;5.07;1.70;;;9.20;99.90;;;;;;12443513;28;20053;-41
2022/04/06 16:20:38;;;;;;;3.50;2.08;;;9.20;99.90;;;;;;12442796;28;20058;-39
2022/04/06 16:26:42;;;;;;;;;;;9.20;99.90;;;;;;12443747;28;20077;-36
2022/04/06 16:32:46;;;;;;;3.13;1.80;;;9.30;99.90;;;;;;12442079;28;19921;-39
2022/04/06 16:38:48;;;;;;;3.10;1.90;;;9.30;99.90;;;;;;12444550;28;20099;-37
2022/04/06 16:44:51;;;;;;;5.47;2.03;;;9.40;99.90;;;;;;12445601;28;20049;-36
2022/04/06 16:57:20;;;;;;;3.15;2.03;;;9.30;99.90;;;;;;12454289;28;20076;-38
2022/04/06 17:03:24;;;;;;;4.90;2.95;;;9.50;99.90;;;;;;12445012;28;20053;-36
2022/04/06 17:09:29;;;;;;;4.35;2.00;;;9.50;99.90;;;;;;12442152;28;20130;-36
2022/04/06 17:15:32;;;;;;;3.85;1.90;;;9.60;99.90;;;;;;12444373;28;20057;-36
2022/04/06 17:21:34;;;;;;;3.03;1.65;;;9.50;99.90;;;;;;12447797;28;20387;-36
2022/04/06 17:27:37;;;;;;;3.95;2.03;;;9.60;99.90;;;;;;12453016;28;20057;-42
2022/04/06 17:33:39;;;;;;;3.97;1.83;;;9.60;99.90;;;;;;12417751;28;20160;-36
2022/04/06 17:39:41;;;;;;;5.13;1.95;;;9.60;99.90;;;;;;12453621;28;20056;-40
2022/04/06 17:45:46;;;;;;;3.40;1.75;;;9.60;99.90;;;;;;12449686;28;20132;-36
2022/04/06 17:51:51;;;;;;;3.40;1.85;;;9.50;99.90;;;;;;12450521;28;20049;-40
2022/04/06 17:57:57;;;;;;;5.13;2.10;;;9.60;99.90;;;;;;12446627;28;20058;-36
2022/04/06 18:03:59;;;;;;;;;;;9.40;99.90;;;;;;12443927;28;20053;-36
2022/04/06 18:10:02;;;;;;;;;;;9.10;99.90;;;;;;12443808;28;20336;-39
2022/04/06 18:16:04;;;;;;;;;;;8.90;99.90;;;;;;12444647;28;19930;-36
2022/04/06 18:22:06;;;;;;;;;;;8.80;99.90;;;;;;12451783;28;20434;-40
2022/04/06 18:28:08;;;;;;;;;;;8.70;99.90;;;;;;12443464;28;20044;-38
2022/04/06 18:34:10;;;;;;;;;;;8.70;99.90;;;;;;12437897;28;19933;-39
2022/04/06 18:40:12;;;;;;;;;;;8.80;99.90;;;;;;12442994;28;19921;-35
2022/04/06 18:46:15;;;;;;;;;;;8.70;99.90;;;;;;12448032;28;20335;-40
2022/04/06 18:52:23;;;;;;;;;;;8.70;99.90;;;;;;12440684;28;19929;-36
2022/04/06 18:58:27;;;;;;;;;;;8.60;99.90;;;;;;12437736;28;19924;-38
2022/04/06 19:04:29;;;;;;;;;;;8.50;99.90;;;;;;12433846;28;20016;-36
2022/04/06 19:10:31;;;;;;;;;;;8.60;99.90;;;;;;12433063;28;20052;-38
2022/04/06 19:16:35;;;;;;;;;;;8.50;99.90;;;;;;12444604;28;19925;-36
2022/04/06 19:22:38;;;;;;;;;;;8.50;99.90;;;;;;12436312;28;20377;-36
2022/04/06 19:28:41;;;;;;;;;;;8.40;99.90;;;;;;12444285;28;20012;-36
2022/04/06 19:34:43;;;;;;;;;;;8.30;99.90;;;;;;12444404;28;20396;-39
2022/04/06 19:40:45;;;;;;;;;;;8.30;99.90;;;;;;12440820;28;20342;-36
2022/04/06 19:46:47;;;;;;;;;;;8.20;99.90;;;;;;12438667;28;20563;-35
2022/04/06 19:52:49;;;;;;;;;;;8.20;99.90;;;;;;12424066;28;19986;-36
2022/04/06 19:58:51;;;;;;;;;;;8.20;99.90;;;;;;12444877;28;20032;-36
2022/04/06 20:04:53;;;;;;;;;;;8.20;99.90;;;;;;12437475;28;19929;-36
2022/04/06 20:10:55;;;;;;;;;;;8.40;99.90;;;;;;12443473;28;20439;-38
2022/04/06 20:16:57;;;;;;;;;;;8.50;99.90;;;;;;12436771;28;19975;-36
2022/04/06 20:23:06;;;;;;;;;;;8.50;99.90;;;;;;12451367;28;19980;-36
2022/04/06 20:29:08;;;;;;;;;;;8.50;99.90;;;;;;12457489;28;19936;-39
2022/04/06 20:35:10;;;;;;;;;;;8.40;99.90;;;;;;12454415;28;20027;-36
2022/04/06 20:41:16;;;;;;;;;;;8.40;99.90;;;;;;12445918;28;19960;-40
2022/04/06 20:47:18;;;;;;;;;;;8.40;99.90;;;;;;12439029;28;19928;-35
2022/04/06 20:53:25;;;;;;;;;;;8.40;99.90;;;;;;12453301;28;19933;-35
2022/04/06 20:59:27;;;;;;;;;;;8.40;99.90;;;;;;12452476;28;20007;-36
2022/04/06 21:05:30;;;;;;;;;;;8.30;99.90;;;;;;12453461;28;20010;-40
2022/04/06 21:11:32;;;;;;;;;;;8.40;99.90;;;;;;12445051;28;20028;-38
2022/04/06 21:17:34;;;;;;;;;;;8.30;99.90;;;;;;12445665;28;20028;-40
2022/04/06 21:23:36;;;;;;;;;;;8.40;99.90;;;;;;12445501;28;19925;-40
2022/04/06 21:29:39;;;;;;;;;;;8.40;99.90;;;;;;12444614;28;19967;-40
2022/04/06 21:35:42;;;;;;;;;;;8.50;99.90;;;;;;12449373;28;19991;-35
2022/04/06 21:41:44;;;;;;;;;;;8.50;99.90;;;;;;12446776;28;19961;-40
2022/04/06 21:47:47;;;;;;;;;;;8.60;99.90;;;;;;12448346;28;19986;-40
2022/04/06 21:53:48;;;;;;;;;;;8.70;99.90;;;;;;12447902;28;20024;-36
2022/04/06 21:59:51;;;;;;;;;;;8.60;99.90;;;;;;12447889;28;20057;-39
2022/04/06 22:05:54;;;;;;;;;;;8.60;99.90;;;;;;12443203;28;19982;-40
2022/04/06 22:11:56;;;;;;;;;;;8.70;99.90;;;;;;12443967;28;20424;-35
2022/04/06 22:17:58;;;;;;;;;;;8.70;99.90;;;;;;12439947;28;19978;-35
2022/04/06 22:24:01;;;;;;;;;;;8.80;99.90;;;;;;12442740;28;19969;-40
2022/04/06 22:30:04;;;;;;;;;;;8.90;99.90;;;;;;12439495;28;20468;-39
2022/04/06 22:36:06;;;;;;;;;;;8.90;99.90;;;;;;12440382;28;19971;-40
2022/04/06 22:42:08;;;;;;;;;;;8.90;99.90;;;;;;12443452;28;19951;-40
2022/04/06 22:48:11;;;;;;;;;;;8.80;99.90;;;;;;12445053;28;20278;-40
2022/04/06 22:54:14;;;;;;;;;;;8.80;99.90;;;;;;12438126;28;19933;-40
2022/04/06 23:00:16;;;;;;;;;;;8.80;99.90;;;;;;12437000;28;19921;-39
2022/04/06 23:06:18;;;;;;;;;;;9.00;99.90;;;;;;12440397;28;19933;-40
2022/04/06 23:12:20;;;;;;;;;;;9.00;99.90;;;;;;12442040;28;20588;-41
2022/04/06 23:18:22;;;;;;;;;;;9.10;99.90;;;;;;12442352;28;19975;-39
2022/04/06 23:24:25;;;;;;;;;;;9.20;99.90;;;;;;12446642;28;19967;-37
2022/04/06 23:30:26;;;;;;;;;;;9.20;99.90;;;;;;12445616;28;19925;-36
2022/04/06 23:36:28;;;;;;;;;;;9.20;99.90;;;;;;12446977;28;20012;-36
2022/04/06 23:42:30;;;;;;;;;;;9.20;99.90;;;;;;12440696;28;19925;-36
2022/04/06 23:48:32;;;;;;;;;;;9.10;99.90;;;;;;12437902;28;19932;-36
2022/04/06 23:54:34;;;;;;;;;;;9.10;99.90;;;;;;12433365;28;20027;-40
